Terminal Aerodrome Forecast
Issued by NWS

Home | Current Version | Previous Version | Text Only | Print | Product List | Glossary On
Versions: 1 2 3 4 5 6 7 8 9 10 11 12 13
000
FTUS43 KTOP 040520
TAFMHK
TAF
KMHK 040520Z 0406/0506 18008KT P6SM SCT150
     FM041600 18014G22KT P6SM FEW200
     FM050000 17009KT P6SM FEW200=

USA.gov is the U.S. government's official web portal to all federal, state and local government web resources and services.